Latest Weather Observations for Sheoaks

IDV60801

Issued at 4:31 pm EST Saturday 4 July 2015 (issued every 30 minutes, with the page automatically refreshed every 10 minutes)

About weather observations | Map of weather stations | Latest weather observations for VIC | Other Formats
Station Details ID: 087168 Name: SHEOAKS Lat: -37.91 Lon: 144.13 Height: 236.7 m
Data from the previous 72 hours. | See also: Recent months at Sheoaks
Date/Time
EST
Temp
°C
App
Temp
°C
Dew
Point
Rel
Hum
%
Delta-T
°C
Wind Press
QNH
hPa
Press
MSL
hPa
Rain
since 9 am
mm
Dir
 
Spd
km/h
Gust
km/h
Spd
kts
Gust
kts
04/04:30pm 9.9 5.1 4.7 70 2.4 NNW 19 26 10 14 1020.6 1020.9 0.0
04/04:00pm 10.3 6.0 5.1 70 2.4 NNW 17 24 9 13 1020.7 1021.0 0.0
04/03:30pm 10.5 6.6 5.5 71 2.3 NW 15 26 8 14 1020.7 1021.0 0.0
04/03:00pm 10.4 5.8 5.4 71 2.3 NW 19 30 10 16 1020.6 1020.9 0.0
04/02:30pm 10.4 6.2 5.6 72 2.2 NW 17 28 9 15 1020.5 1020.8 0.0
04/02:00pm 10.4 5.6 5.4 71 2.3 NW 20 32 11 17 1020.6 1020.9 0.0
04/01:30pm 10.7 6.5 5.7 71 2.3 NW 17 28 9 15 1020.7 1021.0 0.0
04/01:00pm 10.3 6.0 5.1 70 2.4 NW 17 32 9 17 1020.8 1021.2 0.0
04/12:30pm 10.2 6.3 5.2 71 2.3 NW 15 26 8 14 1021.3 1021.7 0.0
04/12:00pm 9.8 5.4 4.8 71 2.3 NW 17 32 9 17 1021.5 1021.9 0.0
04/11:30am 9.6 4.9 5.0 73 2.1 NW 19 32 10 17 1021.9 1022.3 0.0
04/11:00am 9.2 4.2 4.8 74 2.0 NW 20 32 11 17 1022.1 1022.5 0.0
04/10:30am 9.0 4.5 4.4 73 2.1 NW 17 30 9 16 1022.2 1022.6 0.0
04/10:00am 9.1 4.2 4.1 71 2.2 NW 19 32 10 17 1022.1 1022.5 0.0
04/09:30am 8.8 3.8 3.8 71 2.2 NW 19 30 10 16 1021.9 1022.3 0.0
04/09:00am 8.7 3.7 3.5 70 2.3 NW 19 32 10 17 1021.7 1022.1 0.0
04/08:30am 8.2 3.1 3.3 71 2.1 NW 19 28 10 15 1021.6 1022.0 0.0
04/08:00am 7.4 3.0 2.5 71 2.1 NNW 15 22 8 12 1021.6 1022.0 0.0
04/07:30am 7.1 1.3 2.2 71 2.0 NNW 22 33 12 18 1021.4 1021.8 0.0
04/07:00am 7.5 2.1 2.4 70 2.1 NNW 20 32 11 17 1021.2 1021.6 0.0
04/06:30am 7.4 2.5 1.9 68 2.3 NNW 17 32 9 17 1021.0 1021.4 0.0
04/06:00am 7.3 2.0 1.6 67 2.3 NNW 19 28 10 15 1021.2 1021.6 0.0
04/05:30am 7.3 2.3 1.6 67 2.3 NNW 17 26 9 14 1021.3 1021.7 0.0
04/05:00am 7.1 2.1 1.4 67 2.3 NNW 17 22 9 12 1021.2 1021.6 0.0
04/04:30am 7.0 2.0 1.1 66 2.4 NNW 17 26 9 14 1021.3 1021.7 0.0
04/04:00am 7.0 2.4 1.3 67 2.3 NNW 15 28 8 15 1021.5 1021.9 0.0
04/03:30am 7.1 2.1 1.4 67 2.3 NNW 17 24 9 13 1021.5 1021.9 0.0
04/03:00am 7.4 2.8 1.3 65 2.5 NNW 15 22 8 12 1021.8 1022.2 0.0
04/02:30am 7.4 2.4 1.3 65 2.5 NNW 17 22 9 12 1022.1 1022.5 0.0
04/02:00am 7.3 2.6 1.2 65 2.5 NNW 15 24 8 13 1022.5 1022.9 0.0
04/01:30am 7.3 2.6 1.2 65 2.5 NW 15 24 8 13 1022.6 1023.0 0.0
04/01:00am 7.2 2.9 1.1 65 2.5 NNW 13 20 7 11 1022.7 1023.1 0.0
04/12:30am 7.0 1.9 0.9 65 2.5 NNW 17 22 9 12 1023.0 1023.4 0.0
04/12:00am 6.8 2.1 0.9 66 2.4 NNW 15 20 8 11 1023.5 1023.9 0.0
 
Date/Time
EST
Temp
°C
App
Temp
°C
Dew
Point
Rel
Hum
%
Delta-T
°C
Wind Press
QNH
hPa
Press
MSL
hPa
Rain
since 9 am
mm
Dir
 
Spd
km/h
Gust
km/h
Spd
kts
Gust
kts
03/11:30pm 6.8 2.5 0.7 65 2.4 NNW 13 20 7 11 1023.7 1024.1 0.0
03/11:00pm 7.0 2.7 0.9 65 2.4 NNW 13 20 7 11 1023.6 1024.0 0.0
03/10:30pm 7.0 2.3 0.9 65 2.5 NNW 15 22 8 12 1023.7 1024.1 0.0
03/10:00pm 6.8 2.5 1.3 68 2.2 NNW 13 22 7 12 1023.9 1024.3 0.0
03/09:30pm 6.6 2.3 1.3 69 2.2 NNW 13 19 7 10 1024.1 1024.5 0.0
03/09:00pm 6.7 3.2 1.4 69 2.1 NNW 9 17 5 9 1024.4 1024.9 0.0
03/08:30pm 6.6 3.1 1.5 70 2.1 NNW 9 15 5 8 1024.6 1025.1 0.0
03/08:00pm 6.5 2.6 1.2 69 2.1 NNW 11 17 6 9 1024.6 1025.1 0.0
03/07:30pm 6.3 2.8 1.2 70 2.1 NNW 9 13 5 7 1024.9 1025.3 0.0
03/07:00pm 6.4 3.2 0.9 68 2.2 NNW 7 9 4 5 1025.1 1025.5 0.0
03/06:30pm 7.0 4.0 0.9 65 2.5 NW 6 9 3 5 1025.2 1025.6 0.0
03/06:00pm 7.3 3.7 0.7 63 2.6 WNW 9 15 5 8 1025.3 1025.7 0.0
03/05:30pm 7.4 4.1 0.4 61 2.8 WNW 7 9 4 5 1025.3 1025.7 0.0
03/05:00pm 7.7 3.6 0.0 58 3.0 WNW 11 19 6 10 1025.3 1025.7 0.0
03/04:30pm 7.9 3.4 -0.3 56 3.2 WNW 13 19 7 10 1025.4 1025.8 0.0
03/04:00pm 8.1 3.7 0.3 58 3.1 WNW 13 20 7 11 1025.6 1026.0 0.0
03/03:30pm 8.3 3.1 0.3 57 3.2 W 17 28 9 15 1025.8 1026.2 0.0
03/03:00pm 8.4 4.0 0.4 57 3.2 W 13 24 7 13 1025.7 1026.1 0.0
03/02:30pm 8.2 3.8 0.4 58 3.1 W 13 19 7 10 1025.7 1026.1 0.0
03/02:00pm 8.4 4.4 0.6 58 3.1 W 11 17 6 9 1026.1 1026.5 0.0
03/01:30pm 9.1 3.6 0.6 55 3.5 WNW 19 26 10 14 1026.6 1027.0 0.0
03/01:00pm 8.6 4.2 0.6 57 3.2 WNW 13 19 7 10 1026.7 1027.1 0.0
03/12:30pm 8.6 4.7 1.1 59 3.1 WNW 11 19 6 10 1026.9 1027.3 0.0
03/12:00pm 8.4 4.9 1.1 60 3.0 WNW 9 17 5 9 1027.2 1027.6 0.0
03/11:30am 8.3 3.6 1.2 61 2.9 WNW 15 20 8 11 1027.6 1028.0 0.0
03/11:00am 8.4 5.6 3.1 69 2.3 WNW 7 13 4 7 1027.9 1028.4 0.0
03/10:30am 7.3 4.1 3.2 75 1.8 NW 9 15 5 8 1028.5 1029.0 0.0
03/10:00am 7.3 3.7 2.8 73 1.9 WNW 11 17 6 9 1028.5 1029.0 0.0
03/09:30am 6.9 3.7 2.8 75 1.7 WNW 9 15 5 8 1028.4 1028.9 0.0
03/09:00am 6.1 3.3 3.1 81 1.3 WNW 7 13 4 7 1028.2 1028.7 0.4
03/08:30am 5.6 2.4 2.9 83 1.1 NW 9 13 5 7 1028.2 1028.7 0.4
03/08:00am 4.9 2.2 2.9 87 0.8 NW 6 9 3 5 1027.9 1028.4 0.4
03/07:30am 5.1 2.5 3.0 86 0.9 NW 6 9 3 5 1027.8 1028.3 0.4
03/07:00am 5.2 2.5 2.7 84 1.0 NW 6 9 3 5 1027.8 1028.3 0.4
03/06:30am 5.3 2.4 2.8 84 1.0 WNW 7 11 4 6 1027.6 1028.0 0.4
03/06:00am 5.1 1.5 3.0 86 0.9 WNW 11 17 6 9 1027.6 1028.0 0.4
03/05:30am 3.9 1.2 2.6 91 0.5 NW 6 9 3 5 1027.5 1027.9 0.4
03/05:00am 3.7 0.7 2.2 90 0.6 N 7 9 4 5 1027.5 1027.9 0.4
03/04:30am 3.3 0.5 2.1 92 0.5 N 6 7 3 4 1027.5 1027.9 0.4
03/04:00am 3.3 0.3 2.1 92 0.5 N 7 9 4 5 1027.7 1028.1 0.4
03/03:30am 3.0 0.2 1.8 92 0.5 N 6 7 3 4 1027.8 1028.3 0.4
03/03:00am 2.4 -0.6 0.8 89 0.6 NW 6 9 3 5 1027.9 1028.4 0.4
03/02:30am 4.0 0.7 2.2 88 0.7 WNW 9 15 5 8 1027.9 1028.4 0.4
03/02:00am 4.4 1.0 2.1 85 0.9 WNW 9 13 5 7 1027.9 1028.4 0.4
03/01:30am 4.7 1.7 2.2 84 1.0 WNW 7 9 4 5 1027.9 1028.4 0.4
03/01:00am 5.4 1.8 2.9 84 1.0 WNW 11 17 6 9 1028.1 1028.6 0.4
03/12:30am 5.6 1.6 3.1 84 1.1 W 13 20 7 11 1028.3 1028.8 0.4
03/12:00am 5.2 1.2 2.7 84 1.0 W 13 20 7 11 1028.7 1029.2 0.4
 
Date/Time
EST
Temp
°C
App
Temp
°C
Dew
Point
Rel
Hum
%
Delta-T
°C
Wind Press
QNH
hPa
Press
MSL
hPa
Rain
since 9 am
mm
Dir
 
Spd
km/h
Gust
km/h
Spd
kts
Gust
kts
02/11:30pm 5.0 0.6 2.5 84 1.0 W 15 20 8 11 1028.7 1029.2 0.4
02/11:00pm 5.2 1.2 2.6 83 1.1 W 13 19 7 10 1028.5 1029.0 0.4
02/10:30pm 5.6 1.6 2.8 82 1.2 W 13 17 7 9 1028.3 1028.8 0.4
02/10:00pm 5.4 0.7 2.9 84 1.0 W 17 22 9 12 1028.3 1028.8 0.4
02/09:30pm 5.2 1.2 2.6 83 1.1 W 13 22 7 12 1028.5 1029.0 0.4
02/09:00pm 6.0 2.0 2.6 79 1.4 W 13 17 7 9 1028.3 1028.8 0.4
02/08:30pm 5.8 1.7 2.4 79 1.4 W 13 17 7 9 1028.1 1028.6 0.4
02/08:00pm 5.6 1.5 2.4 80 1.3 W 13 17 7 9 1027.9 1028.4 0.4
02/07:30pm 5.8 1.7 2.4 79 1.4 W 13 20 7 11 1027.7 1028.1 0.4
02/07:00pm 5.9 2.2 2.5 79 1.4 W 11 17 6 9 1027.3 1027.7 0.4
02/06:30pm 6.0 2.7 2.5 78 1.5 WSW 9 15 5 8 1027.0 1027.4 0.4
02/06:00pm 6.5 2.8 2.4 75 1.7 WSW 11 17 6 9 1026.8 1027.2 0.4
02/05:30pm 6.8 3.8 2.1 72 1.9 WSW 7 13 4 7 1026.7 1027.1 0.4
02/05:00pm 7.8 3.7 2.3 68 2.3 SW 13 20 7 11 1026.4 1026.8 0.4
02/04:30pm 8.5 4.0 1.9 63 2.8 SW 15 24 8 13 1026.0 1026.4 0.4
02/04:00pm 8.9 4.1 2.5 64 2.7 SW 17 28 9 15 1025.7 1026.1 0.4
02/03:30pm 8.7 3.4 3.1 68 2.4 SSW 20 32 11 17 1025.4 1025.8 0.4
02/03:00pm 9.4 4.5 1.8 59 3.2 SW 17 26 9 14 1025.1 1025.5 0.4
02/02:30pm 9.3 4.2 3.1 65 2.7 S 19 33 10 18 1024.9 1025.3 0.4
02/02:00pm 9.8 3.9 1.7 57 3.4 SSW 22 30 12 16 1024.3 1024.8 0.4
02/01:30pm 9.8 4.6 2.6 61 3.1 SSW 19 28 10 15 1024.2 1024.6 0.4
02/01:00pm 9.6 3.4 2.0 59 3.2 SW 24 35 13 19 1023.9 1024.3 0.4
02/12:30pm 9.1 2.5 1.8 60 3.1 SW 26 41 14 22 1023.7 1024.1 0.4
02/12:00pm 9.1 1.7 1.8 60 3.1 SW 30 44 16 24 1023.6 1024.0 0.4
02/11:30am 9.0 0.8 0.5 55 3.5 SW 33 50 18 27 1023.5 1023.9 0.4
02/11:25am 9.0 1.8 1.0 57 3.3 SW 28 50 15 27 1023.4 1023.8 0.4
02/11:00am 8.9 2.4 2.5 64 2.7 SW 26 44 14 24 1023.5 1023.9 0.4
02/10:30am 8.5 2.9 3.6 71 2.1 WSW 22 35 12 19 1023.2 1023.6 0.4
02/10:00am 7.5 3.3 5.5 87 0.9 WSW 17 39 9 21 1022.7 1023.1 0.4
02/09:30am 7.1 2.3 5.7 91 0.6 W 20 32 11 17 1022.2 1022.6 0.2
02/09:04am 6.9 0.1 5.1 88 0.8 W 30 48 16 26 1021.8 1022.2 0.2
02/09:00am 7.1 -0.1 4.9 86 1.0 W 32 48 17 26 1021.6 1022.0 0.0
02/08:42am 8.3 1.3 3.9 74 1.9 W 30 48 16 26 1021.0 1021.4 0.0
02/08:30am 8.0 1.8 4.2 77 1.7 W 26 44 14 24 1020.7 1021.0 0.0
02/08:00am 8.0 1.1 4.6 79 1.5 WNW 30 41 16 22 1020.0 1020.4 0.0
02/07:30am 8.0 1.4 4.4 78 1.6 WNW 28 41 15 22 1019.9 1020.3 0.0
02/07:00am 8.1 2.6 4.1 76 1.8 WNW 22 33 12 18 1019.6 1020.0 0.0
02/06:30am 8.1 3.1 4.7 79 1.5 WNW 20 35 11 19 1019.3 1019.7 0.0
02/06:00am 8.6 2.8 4.4 75 1.9 W 24 35 13 19 1019.1 1019.5 0.0
02/05:30am 8.7 3.0 4.9 77 1.7 W 24 39 13 21 1019.0 1019.4 0.0
02/05:00am 8.8 3.3 5.9 82 1.3 W 24 37 13 20 1018.8 1019.2 0.0
02/04:30am 9.5 3.5 6.9 84 1.2 W 28 46 15 25 1018.6 1019.0 0.0
02/04:00am 9.9 4.0 7.7 86 1.1 W 28 46 15 25 1018.4 1018.8 0.0
02/03:45am 10.1 4.3 7.9 86 1.1 WNW 28 50 15 27 1018.4 1018.8 0.0
02/03:30am 10.2 4.8 8.0 86 1.1 WNW 26 41 14 22 1018.5 1018.9 0.0
02/03:00am 10.0 4.2 7.9 87 1.0 WNW 28 48 15 26 1018.4 1018.8 0.0
02/02:48am 10.2 4.4 8.0 86 1.1 WNW 28 46 15 25 1018.1 1018.5 0.0
02/02:30am 10.0 5.3 7.9 87 1.0 NW 22 37 12 20 1018.2 1018.6 0.0
02/02:00am 10.3 4.8 7.4 82 1.4 NW 26 37 14 20 1018.1 1018.5 0.0
02/01:30am 11.2 4.8 6.9 75 2.1 NW 30 52 16 28 1018.0 1018.4 0.0
02/01:00am 10.7 5.4 6.6 76 1.9 NW 24 37 13 20 1018.4 1018.8 0.0
02/12:44am 10.7 4.6 6.6 76 2.0 NW 28 48 15 26 1018.4 1018.8 0.0
02/12:30am 10.4 5.1 6.7 78 1.8 NW 24 43 13 23 1018.9 1019.3 0.0
02/12:00am 10.4 5.1 6.9 79 1.7 NW 24 35 13 19 1019.3 1019.7 0.0
 
Date/Time
EST
Temp
°C
App
Temp
°C
Dew
Point
Rel
Hum
%
Delta-T
°C
Wind Press
QNH
hPa
Press
MSL
hPa
Rain
since 9 am
mm
Dir
 
Spd
km/h
Gust
km/h
Spd
kts
Gust
kts
01/11:30pm 10.4 5.2 7.1 80 1.6 NW 24 41 13 22 1019.7 1020.1 0.0
01/11:00pm 10.3 5.8 7.0 80 1.6 NW 20 37 11 20 1020.0 1020.4 0.0
01/10:30pm 10.2 5.7 6.9 80 1.6 NNW 20 30 11 16 1020.5 1020.8 0.0
01/10:00pm 10.0 5.5 6.9 81 1.5 NW 20 30 11 16 1020.9 1021.3 0.0
01/09:30pm 9.9 5.4 6.8 81 1.5 NW 20 35 11 19 1021.0 1021.4 0.0
01/09:00pm 9.5 4.9 6.6 82 1.4 NW 20 35 11 19 1021.3 1021.7 0.0
01/08:30pm 9.5 5.0 6.8 83 1.3 NNW 20 32 11 17 1021.2 1021.6 0.0
01/08:00pm 10.4 5.7 6.2 75 2.0 NW 20 33 11 18 1021.5 1021.9 0.0
01/07:30pm 10.5 5.7 5.7 72 2.2 NW 20 28 11 15 1021.5 1021.9 0.0
01/07:00pm 10.3 5.0 5.1 70 2.4 NNW 22 32 12 17 1021.4 1021.8 0.0
01/06:30pm 10.4 5.5 5.2 70 2.4 NW 20 39 11 21 1021.8 1022.2 0.0
01/06:00pm 10.6 5.8 4.7 67 2.7 NW 19 28 10 15 1021.7 1022.1 0.0
01/05:30pm 10.7 6.3 4.6 66 2.8 NW 17 28 9 15 1021.7 1022.1 0.0
01/05:00pm 10.8 6.3 4.3 64 2.9 NW 17 26 9 14 1021.9 1022.3 0.0

Other Formats:

Comma delimited format used in spreadsheet applications
http://www.bom.gov.au/fwo/IDV60801/IDV60801.94863.axf

JavaScript Object Notation format (JSON) in row-major order
http://www.bom.gov.au/fwo/IDV60801/IDV60801.94863.json